sensor_id;sensor_type;location;lat;lon;timestamp;P1;durP1;ratioP1;P2;durP2;ratioP2
4365;SDS011;2196;47.422;9.656;2023-02-28T00:01:31;5.33;;;4.33;;
4365;SDS011;2196;47.422;9.656;2023-02-28T00:04:00;7.50;;;4.27;;
4365;SDS011;2196;47.422;9.656;2023-02-28T00:06:27;5.07;;;4.10;;
4365;SDS011;2196;47.422;9.656;2023-02-28T00:08:54;4.47;;;4.07;;
4365;SDS011;2196;47.422;9.656;2023-02-28T00:11:22;4.60;;;4.20;;
4365;SDS011;2196;47.422;9.656;2023-02-28T00:13:49;4.50;;;4.10;;
4365;SDS011;2196;47.422;9.656;2023-02-28T00:16:18;5.03;;;4.57;;
4365;SDS011;2196;47.422;9.656;2023-02-28T00:18:46;4.40;;;4.10;;
4365;SDS011;2196;47.422;9.656;2023-02-28T00:21:14;5.37;;;4.77;;
4365;SDS011;2196;47.422;9.656;2023-02-28T00:23:41;5.60;;;4.43;;
4365;SDS011;2196;47.422;9.656;2023-02-28T00:26:08;8.97;;;4.90;;
4365;SDS011;2196;47.422;9.656;2023-02-28T00:28:37;5.80;;;4.80;;
4365;SDS011;2196;47.422;9.656;2023-02-28T00:31:04;5.50;;;5.03;;
4365;SDS011;2196;47.422;9.656;2023-02-28T00:33:31;6.40;;;4.70;;
4365;SDS011;2196;47.422;9.656;2023-02-28T00:36:02;5.40;;;4.97;;
4365;SDS011;2196;47.422;9.656;2023-02-28T00:38:31;6.33;;;5.27;;
4365;SDS011;2196;47.422;9.656;2023-02-28T00:40:58;4.60;;;4.27;;
4365;SDS011;2196;47.422;9.656;2023-02-28T00:43:29;5.80;;;5.27;;
4365;SDS011;2196;47.422;9.656;2023-02-28T00:45:58;7.43;;;4.20;;
4365;SDS011;2196;47.422;9.656;2023-02-28T00:48:25;6.30;;;4.93;;
4365;SDS011;2196;47.422;9.656;2023-02-28T00:50:53;4.80;;;4.40;;
4365;SDS011;2196;47.422;9.656;2023-02-28T00:53:20;6.67;;;5.27;;
4365;SDS011;2196;47.422;9.656;2023-02-28T00:55:48;5.27;;;4.77;;
4365;SDS011;2196;47.422;9.656;2023-02-28T00:58:15;7.00;;;5.53;;
4365;SDS011;2196;47.422;9.656;2023-02-28T01:00:42;7.73;;;6.23;;
4365;SDS011;2196;47.422;9.656;2023-02-28T01:03:15;7.30;;;4.80;;
4365;SDS011;2196;47.422;9.656;2023-02-28T01:05:43;7.60;;;5.23;;
4365;SDS011;2196;47.422;9.656;2023-02-28T01:08:10;6.40;;;5.80;;
4365;SDS011;2196;47.422;9.656;2023-02-28T01:10:38;5.80;;;5.40;;
4365;SDS011;2196;47.422;9.656;2023-02-28T01:13:05;6.70;;;5.07;;
4365;SDS011;2196;47.422;9.656;2023-02-28T01:15:32;7.37;;;5.50;;
4365;SDS011;2196;47.422;9.656;2023-02-28T01:17:59;13.57;;;5.50;;
4365;SDS011;2196;47.422;9.656;2023-02-28T01:20:28;7.40;;;5.00;;
4365;SDS011;2196;47.422;9.656;2023-02-28T01:22:55;7.57;;;5.03;;
4365;SDS011;2196;47.422;9.656;2023-02-28T01:25:22;5.13;;;4.67;;
4365;SDS011;2196;47.422;9.656;2023-02-28T01:27:49;6.03;;;5.50;;
4365;SDS011;2196;47.422;9.656;2023-02-28T01:30:16;5.47;;;5.00;;
4365;SDS011;2196;47.422;9.656;2023-02-28T01:32:46;5.57;;;5.10;;
4365;SDS011;2196;47.422;9.656;2023-02-28T01:35:13;6.37;;;5.03;;
4365;SDS011;2196;47.422;9.656;2023-02-28T01:37:42;6.93;;;5.20;;
4365;SDS011;2196;47.422;9.656;2023-02-28T01:40:09;7.23;;;5.50;;
4365;SDS011;2196;47.422;9.656;2023-02-28T01:42:41;7.23;;;5.30;;
4365;SDS011;2196;47.422;9.656;2023-02-28T01:45:16;7.37;;;6.23;;
4365;SDS011;2196;47.422;9.656;2023-02-28T01:47:49;6.67;;;5.97;;
4365;SDS011;2196;47.422;9.656;2023-02-28T01:50:19;8.73;;;5.80;;
4365;SDS011;2196;47.422;9.656;2023-02-28T01:52:50;7.23;;;6.27;;
4365;SDS011;2196;47.422;9.656;2023-02-28T01:55:18;9.20;;;5.37;;
4365;SDS011;2196;47.422;9.656;2023-02-28T01:57:48;6.20;;;5.53;;
4365;SDS011;2196;47.422;9.656;2023-02-28T02:00:22;7.00;;;5.60;;
4365;SDS011;2196;47.422;9.656;2023-02-28T02:02:52;7.93;;;5.87;;
4365;SDS011;2196;47.422;9.656;2023-02-28T02:05:22;7.93;;;4.97;;
4365;SDS011;2196;47.422;9.656;2023-02-28T02:07:54;7.90;;;6.00;;
4365;SDS011;2196;47.422;9.656;2023-02-28T02:10:24;5.40;;;4.90;;
4365;SDS011;2196;47.422;9.656;2023-02-28T02:16:02;6.53;;;5.37;;
4365;SDS011;2196;47.422;9.656;2023-02-28T02:18:40;5.00;;;4.50;;
4365;SDS011;2196;47.422;9.656;2023-02-28T02:21:18;5.60;;;5.10;;
4365;SDS011;2196;47.422;9.656;2023-02-28T02:24:17;5.33;;;4.83;;
4365;SDS011;2196;47.422;9.656;2023-02-28T02:27:08;5.77;;;5.23;;
4365;SDS011;2196;47.422;9.656;2023-02-28T02:29:47;6.67;;;5.83;;
4365;SDS011;2196;47.422;9.656;2023-02-28T02:35:42;6.77;;;5.83;;
4365;SDS011;2196;47.422;9.656;2023-02-28T02:38:13;6.37;;;5.43;;
4365;SDS011;2196;47.422;9.656;2023-02-28T02:40:50;5.67;;;5.17;;
4365;SDS011;2196;47.422;9.656;2023-02-28T02:43:25;6.70;;;5.17;;
4365;SDS011;2196;47.422;9.656;2023-02-28T02:45:59;7.10;;;5.57;;
4365;SDS011;2196;47.422;9.656;2023-02-28T02:48:31;8.00;;;6.23;;
4365;SDS011;2196;47.422;9.656;2023-02-28T02:51:02;6.77;;;6.07;;
4365;SDS011;2196;47.422;9.656;2023-02-28T02:53:37;5.83;;;5.33;;
4365;SDS011;2196;47.422;9.656;2023-02-28T02:56:08;8.43;;;6.03;;
4365;SDS011;2196;47.422;9.656;2023-02-28T02:58:38;6.83;;;6.03;;
4365;SDS011;2196;47.422;9.656;2023-02-28T03:01:08;8.20;;;7.23;;
4365;SDS011;2196;47.422;9.656;2023-02-28T03:03:40;5.63;;;5.20;;
4365;SDS011;2196;47.422;9.656;2023-02-28T03:06:09;8.43;;;5.87;;
4365;SDS011;2196;47.422;9.656;2023-02-28T03:08:37;5.97;;;5.40;;
4365;SDS011;2196;47.422;9.656;2023-02-28T03:11:05;7.63;;;6.53;;
4365;SDS011;2196;47.422;9.656;2023-02-28T03:13:48;6.17;;;5.63;;
4365;SDS011;2196;47.422;9.656;2023-02-28T03:20:02;6.40;;;5.63;;
4365;SDS011;2196;47.422;9.656;2023-02-28T03:25:32;6.67;;;5.90;;
4365;SDS011;2196;47.422;9.656;2023-02-28T03:28:08;9.57;;;6.13;;
4365;SDS011;2196;47.422;9.656;2023-02-28T03:30:42;5.97;;;5.37;;
4365;SDS011;2196;47.422;9.656;2023-02-28T03:33:19;9.13;;;6.50;;
4365;SDS011;2196;47.422;9.656;2023-02-28T03:38:19;6.83;;;6.23;;
4365;SDS011;2196;47.422;9.656;2023-02-28T03:40:53;7.77;;;6.40;;
4365;SDS011;2196;47.422;9.656;2023-02-28T03:43:27;6.07;;;5.57;;
4365;SDS011;2196;47.422;9.656;2023-02-28T03:45:57;6.57;;;5.93;;
4365;SDS011;2196;47.422;9.656;2023-02-28T03:48:29;6.40;;;5.50;;
4365;SDS011;2196;47.422;9.656;2023-02-28T03:51:03;6.03;;;5.17;;
4365;SDS011;2196;47.422;9.656;2023-02-28T03:53:34;6.00;;;5.50;;
4365;SDS011;2196;47.422;9.656;2023-02-28T03:56:05;6.13;;;5.63;;
4365;SDS011;2196;47.422;9.656;2023-02-28T03:58:40;7.63;;;5.40;;
4365;SDS011;2196;47.422;9.656;2023-02-28T04:01:14;6.83;;;6.17;;
4365;SDS011;2196;47.422;9.656;2023-02-28T04:03:45;7.27;;;5.83;;
4365;SDS011;2196;47.422;9.656;2023-02-28T04:06:13;6.33;;;5.67;;
4365;SDS011;2196;47.422;9.656;2023-02-28T04:08:44;6.97;;;5.50;;
4365;SDS011;2196;47.422;9.656;2023-02-28T04:11:14;6.73;;;6.13;;
4365;SDS011;2196;47.422;9.656;2023-02-28T04:13:49;8.43;;;5.73;;
4365;SDS011;2196;47.422;9.656;2023-02-28T04:16:16;7.83;;;5.90;;
4365;SDS011;2196;47.422;9.656;2023-02-28T04:18:43;6.17;;;5.57;;
4365;SDS011;2196;47.422;9.656;2023-02-28T04:21:10;10.03;;;6.53;;
4365;SDS011;2196;47.422;9.656;2023-02-28T04:23:38;8.07;;;5.23;;
4365;SDS011;2196;47.422;9.656;2023-02-28T04:26:06;7.17;;;6.50;;
4365;SDS011;2196;47.422;9.656;2023-02-28T04:28:33;7.93;;;6.00;;
4365;SDS011;2196;47.422;9.656;2023-02-28T04:31:01;5.97;;;5.20;;
4365;SDS011;2196;47.422;9.656;2023-02-28T04:33:30;6.30;;;5.70;;
4365;SDS011;2196;47.422;9.656;2023-02-28T04:35:58;6.30;;;5.73;;
4365;SDS011;2196;47.422;9.656;2023-02-28T04:38:27;6.27;;;5.67;;
4365;SDS011;2196;47.422;9.656;2023-02-28T04:40:56;8.23;;;6.53;;
4365;SDS011;2196;47.422;9.656;2023-02-28T04:43:25;6.57;;;5.97;;
4365;SDS011;2196;47.422;9.656;2023-02-28T04:45:53;6.37;;;5.87;;
4365;SDS011;2196;47.422;9.656;2023-02-28T04:48:21;8.67;;;6.43;;
4365;SDS011;2196;47.422;9.656;2023-02-28T04:50:49;8.23;;;6.13;;
4365;SDS011;2196;47.422;9.656;2023-02-28T04:53:16;6.13;;;5.53;;
4365;SDS011;2196;47.422;9.656;2023-02-28T04:55:44;7.17;;;6.43;;
4365;SDS011;2196;47.422;9.656;2023-02-28T04:58:11;8.23;;;7.13;;
4365;SDS011;2196;47.422;9.656;2023-02-28T05:00:39;7.27;;;5.97;;
4365;SDS011;2196;47.422;9.656;2023-02-28T05:03:06;7.27;;;6.60;;
4365;SDS011;2196;47.422;9.656;2023-02-28T05:05:33;10.47;;;6.70;;
4365;SDS011;2196;47.422;9.656;2023-02-28T05:08:01;6.47;;;5.90;;
4365;SDS011;2196;47.422;9.656;2023-02-28T05:10:30;6.40;;;5.77;;
4365;SDS011;2196;47.422;9.656;2023-02-28T05:12:57;9.40;;;6.57;;
4365;SDS011;2196;47.422;9.656;2023-02-28T05:15:24;7.73;;;6.40;;
4365;SDS011;2196;47.422;9.656;2023-02-28T05:17:52;7.50;;;6.70;;
4365;SDS011;2196;47.422;9.656;2023-02-28T05:20:19;10.87;;;6.20;;
4365;SDS011;2196;47.422;9.656;2023-02-28T05:22:46;6.70;;;5.67;;
4365;SDS011;2196;47.422;9.656;2023-02-28T05:25:15;10.30;;;6.73;;
4365;SDS011;2196;47.422;9.656;2023-02-28T05:27:46;7.53;;;6.07;;
4365;SDS011;2196;47.422;9.656;2023-02-28T05:30:13;7.77;;;6.67;;
4365;SDS011;2196;47.422;9.656;2023-02-28T05:32:44;7.80;;;6.77;;
4365;SDS011;2196;47.422;9.656;2023-02-28T05:35:17;7.03;;;6.37;;
4365;SDS011;2196;47.422;9.656;2023-02-28T05:37:46;6.33;;;5.63;;
4365;SDS011;2196;47.422;9.656;2023-02-28T05:40:13;9.43;;;6.40;;
4365;SDS011;2196;47.422;9.656;2023-02-28T05:42:41;7.80;;;5.93;;
4365;SDS011;2196;47.422;9.656;2023-02-28T05:45:08;6.43;;;5.83;;
4365;SDS011;2196;47.422;9.656;2023-02-28T05:47:36;6.67;;;6.10;;
4365;SDS011;2196;47.422;9.656;2023-02-28T05:50:03;7.57;;;6.73;;
4365;SDS011;2196;47.422;9.656;2023-02-28T05:52:33;7.07;;;6.47;;
4365;SDS011;2196;47.422;9.656;2023-02-28T05:55:00;7.30;;;6.60;;
4365;SDS011;2196;47.422;9.656;2023-02-28T05:57:27;10.90;;;6.30;;
4365;SDS011;2196;47.422;9.656;2023-02-28T05:59:54;7.03;;;6.13;;
4365;SDS011;2196;47.422;9.656;2023-02-28T06:02:20;9.00;;;6.70;;
4365;SDS011;2196;47.422;9.656;2023-02-28T06:04:48;7.67;;;6.50;;
4365;SDS011;2196;47.422;9.656;2023-02-28T06:07:15;8.00;;;6.57;;
4365;SDS011;2196;47.422;9.656;2023-02-28T06:09:44;8.47;;;7.17;;
4365;SDS011;2196;47.422;9.656;2023-02-28T06:12:11;8.37;;;6.87;;
4365;SDS011;2196;47.422;9.656;2023-02-28T06:14:38;9.77;;;6.43;;
4365;SDS011;2196;47.422;9.656;2023-02-28T06:17:06;7.43;;;6.60;;
4365;SDS011;2196;47.422;9.656;2023-02-28T06:19:33;7.30;;;6.70;;
4365;SDS011;2196;47.422;9.656;2023-02-28T06:21:59;8.63;;;6.43;;
4365;SDS011;2196;47.422;9.656;2023-02-28T06:24:26;8.00;;;7.23;;
4365;SDS011;2196;47.422;9.656;2023-02-28T06:26:57;7.97;;;6.57;;
4365;SDS011;2196;47.422;9.656;2023-02-28T06:29:29;11.13;;;6.67;;
4365;SDS011;2196;47.422;9.656;2023-02-28T06:31:57;9.03;;;6.67;;
4365;SDS011;2196;47.422;9.656;2023-02-28T06:34:24;9.63;;;7.07;;
4365;SDS011;2196;47.422;9.656;2023-02-28T06:36:51;10.57;;;7.33;;
4365;SDS011;2196;47.422;9.656;2023-02-28T06:39:18;9.73;;;7.60;;
4365;SDS011;2196;47.422;9.656;2023-02-28T06:41:46;9.90;;;6.77;;
4365;SDS011;2196;47.422;9.656;2023-02-28T06:44:15;8.83;;;6.73;;
4365;SDS011;2196;47.422;9.656;2023-02-28T06:46:43;9.37;;;6.10;;
4365;SDS011;2196;47.422;9.656;2023-02-28T06:49:11;6.93;;;6.27;;
4365;SDS011;2196;47.422;9.656;2023-02-28T06:51:39;6.67;;;6.07;;
4365;SDS011;2196;47.422;9.656;2023-02-28T06:54:10;7.50;;;6.60;;
4365;SDS011;2196;47.422;9.656;2023-02-28T06:56:37;8.60;;;7.13;;
4365;SDS011;2196;47.422;9.656;2023-02-28T06:59:04;8.47;;;7.47;;
4365;SDS011;2196;47.422;9.656;2023-02-28T07:01:33;10.27;;;7.40;;
4365;SDS011;2196;47.422;9.656;2023-02-28T07:04:00;7.70;;;6.30;;
4365;SDS011;2196;47.422;9.656;2023-02-28T07:06:27;7.40;;;6.70;;
4365;SDS011;2196;47.422;9.656;2023-02-28T07:08:54;9.10;;;7.80;;
4365;SDS011;2196;47.422;9.656;2023-02-28T07:11:21;6.07;;;5.47;;
4365;SDS011;2196;47.422;9.656;2023-02-28T07:13:50;9.10;;;5.87;;
4365;SDS011;2196;47.422;9.656;2023-02-28T07:16:17;8.20;;;6.67;;
4365;SDS011;2196;47.422;9.656;2023-02-28T07:18:46;9.33;;;6.80;;
4365;SDS011;2196;47.422;9.656;2023-02-28T07:21:13;8.23;;;7.03;;
4365;SDS011;2196;47.422;9.656;2023-02-28T07:23:40;7.13;;;6.43;;
4365;SDS011;2196;47.422;9.656;2023-02-28T07:26:07;7.33;;;6.17;;
4365;SDS011;2196;47.422;9.656;2023-02-28T07:28:39;12.83;;;7.67;;
4365;SDS011;2196;47.422;9.656;2023-02-28T07:31:08;7.27;;;6.57;;
4365;SDS011;2196;47.422;9.656;2023-02-28T07:33:36;7.73;;;6.10;;
4365;SDS011;2196;47.422;9.656;2023-02-28T07:36:05;9.97;;;6.43;;
4365;SDS011;2196;47.422;9.656;2023-02-28T07:38:34;7.33;;;5.80;;
4365;SDS011;2196;47.422;9.656;2023-02-28T07:41:02;11.47;;;6.23;;
4365;SDS011;2196;47.422;9.656;2023-02-28T07:43:30;8.10;;;7.23;;
4365;SDS011;2196;47.422;9.656;2023-02-28T07:46:00;7.40;;;6.77;;
4365;SDS011;2196;47.422;9.656;2023-02-28T07:48:28;7.17;;;6.47;;
4365;SDS011;2196;47.422;9.656;2023-02-28T07:50:55;7.13;;;6.57;;
4365;SDS011;2196;47.422;9.656;2023-02-28T07:53:23;10.03;;;7.90;;
4365;SDS011;2196;47.422;9.656;2023-02-28T07:55:50;9.40;;;6.50;;
4365;SDS011;2196;47.422;9.656;2023-02-28T07:58:20;8.57;;;7.70;;
4365;SDS011;2196;47.422;9.656;2023-02-28T08:00:47;7.07;;;6.37;;
4365;SDS011;2196;47.422;9.656;2023-02-28T08:03:14;8.13;;;6.83;;
4365;SDS011;2196;47.422;9.656;2023-02-28T08:05:44;8.00;;;6.77;;
4365;SDS011;2196;47.422;9.656;2023-02-28T08:08:11;7.13;;;6.43;;
4365;SDS011;2196;47.422;9.656;2023-02-28T08:10:39;9.00;;;6.80;;
4365;SDS011;2196;47.422;9.656;2023-02-28T08:13:07;7.87;;;6.60;;
4365;SDS011;2196;47.422;9.656;2023-02-28T08:15:34;7.63;;;6.57;;
4365;SDS011;2196;47.422;9.656;2023-02-28T08:18:01;8.90;;;6.50;;
4365;SDS011;2196;47.422;9.656;2023-02-28T08:20:29;7.30;;;6.57;;
4365;SDS011;2196;47.422;9.656;2023-02-28T08:22:56;7.33;;;6.73;;
4365;SDS011;2196;47.422;9.656;2023-02-28T08:25:23;6.80;;;6.10;;
4365;SDS011;2196;47.422;9.656;2023-02-28T08:27:52;8.03;;;6.90;;
4365;SDS011;2196;47.422;9.656;2023-02-28T08:30:19;9.17;;;7.70;;
4365;SDS011;2196;47.422;9.656;2023-02-28T08:32:46;9.47;;;7.17;;
4365;SDS011;2196;47.422;9.656;2023-02-28T08:35:13;9.43;;;7.47;;
4365;SDS011;2196;47.422;9.656;2023-02-28T08:37:44;9.00;;;6.77;;
4365;SDS011;2196;47.422;9.656;2023-02-28T08:40:13;7.33;;;6.63;;
4365;SDS011;2196;47.422;9.656;2023-02-28T08:42:43;9.37;;;6.50;;
4365;SDS011;2196;47.422;9.656;2023-02-28T08:45:11;12.00;;;7.10;;
4365;SDS011;2196;47.422;9.656;2023-02-28T08:47:39;7.27;;;6.57;;
4365;SDS011;2196;47.422;9.656;2023-02-28T08:50:10;7.13;;;6.43;;
4365;SDS011;2196;47.422;9.656;2023-02-28T08:52:41;9.37;;;7.23;;
4365;SDS011;2196;47.422;9.656;2023-02-28T08:55:09;7.60;;;6.90;;
4365;SDS011;2196;47.422;9.656;2023-02-28T08:57:36;9.53;;;7.33;;
4365;SDS011;2196;47.422;9.656;2023-02-28T09:00:04;9.77;;;8.00;;
4365;SDS011;2196;47.422;9.656;2023-02-28T09:02:34;8.30;;;7.40;;
4365;SDS011;2196;47.422;9.656;2023-02-28T09:05:02;9.10;;;6.17;;
4365;SDS011;2196;47.422;9.656;2023-02-28T09:07:29;5.97;;;5.47;;
4365;SDS011;2196;47.422;9.656;2023-02-28T09:09:56;12.00;;;7.77;;
4365;SDS011;2196;47.422;9.656;2023-02-28T09:12:24;7.53;;;6.83;;
4365;SDS011;2196;47.422;9.656;2023-02-28T09:14:52;6.97;;;6.27;;
4365;SDS011;2196;47.422;9.656;2023-02-28T09:17:19;8.20;;;5.70;;
4365;SDS011;2196;47.422;9.656;2023-02-28T09:19:48;8.70;;;6.50;;
4365;SDS011;2196;47.422;9.656;2023-02-28T09:22:15;7.03;;;6.40;;
4365;SDS011;2196;47.422;9.656;2023-02-28T09:24:42;9.13;;;7.37;;
4365;SDS011;2196;47.422;9.656;2023-02-28T09:27:10;8.63;;;6.60;;
4365;SDS011;2196;47.422;9.656;2023-02-28T09:29:37;8.70;;;7.20;;
4365;SDS011;2196;47.422;9.656;2023-02-28T09:32:04;8.27;;;7.23;;
4365;SDS011;2196;47.422;9.656;2023-02-28T09:34:31;8.97;;;7.43;;
4365;SDS011;2196;47.422;9.656;2023-02-28T09:37:00;9.10;;;7.00;;
4365;SDS011;2196;47.422;9.656;2023-02-28T09:39:27;9.60;;;7.63;;
4365;SDS011;2196;47.422;9.656;2023-02-28T09:41:54;7.97;;;7.30;;
4365;SDS011;2196;47.422;9.656;2023-02-28T09:44:24;7.97;;;7.17;;
4365;SDS011;2196;47.422;9.656;2023-02-28T09:46:57;9.03;;;8.13;;
4365;SDS011;2196;47.422;9.656;2023-02-28T09:49:29;9.80;;;7.90;;
4365;SDS011;2196;47.422;9.656;2023-02-28T09:52:03;10.00;;;7.63;;
4365;SDS011;2196;47.422;9.656;2023-02-28T09:54:34;9.50;;;8.47;;
4365;SDS011;2196;47.422;9.656;2023-02-28T09:57:04;9.27;;;8.23;;
4365;SDS011;2196;47.422;9.656;2023-02-28T09:59:39;9.33;;;8.37;;
4365;SDS011;2196;47.422;9.656;2023-02-28T10:02:32;8.67;;;7.87;;
4365;SDS011;2196;47.422;9.656;2023-02-28T10:05:14;9.07;;;8.17;;
4365;SDS011;2196;47.422;9.656;2023-02-28T10:07:57;9.03;;;8.13;;
4365;SDS011;2196;47.422;9.656;2023-02-28T10:10:33;10.23;;;8.97;;
4365;SDS011;2196;47.422;9.656;2023-02-28T10:13:05;9.20;;;8.10;;
4365;SDS011;2196;47.422;9.656;2023-02-28T10:15:39;10.87;;;9.27;;
4365;SDS011;2196;47.422;9.656;2023-02-28T10:18:09;8.67;;;7.57;;
4365;SDS011;2196;47.422;9.656;2023-02-28T10:20:41;11.13;;;9.17;;
4365;SDS011;2196;47.422;9.656;2023-02-28T10:23:12;9.93;;;8.93;;
4365;SDS011;2196;47.422;9.656;2023-02-28T10:25:44;9.47;;;8.57;;
4365;SDS011;2196;47.422;9.656;2023-02-28T10:28:16;12.17;;;9.03;;
4365;SDS011;2196;47.422;9.656;2023-02-28T10:30:44;11.20;;;10.03;;
4365;SDS011;2196;47.422;9.656;2023-02-28T10:33:24;10.23;;;7.70;;
4365;SDS011;2196;47.422;9.656;2023-02-28T10:35:54;10.90;;;8.80;;
4365;SDS011;2196;47.422;9.656;2023-02-28T10:38:23;11.17;;;9.83;;
4365;SDS011;2196;47.422;9.656;2023-02-28T10:40:53;9.50;;;7.87;;
4365;SDS011;2196;47.422;9.656;2023-02-28T10:43:30;10.40;;;9.07;;
4365;SDS011;2196;47.422;9.656;2023-02-28T10:45:58;9.37;;;8.47;;
4365;SDS011;2196;47.422;9.656;2023-02-28T10:48:30;12.03;;;9.37;;
4365;SDS011;2196;47.422;9.656;2023-02-28T10:51:02;10.13;;;9.10;;
4365;SDS011;2196;47.422;9.656;2023-02-28T10:53:33;11.60;;;10.03;;
4365;SDS011;2196;47.422;9.656;2023-02-28T10:56:02;11.17;;;8.80;;
4365;SDS011;2196;47.422;9.656;2023-02-28T10:58:40;11.57;;;8.53;;
4365;SDS011;2196;47.422;9.656;2023-02-28T11:01:13;10.60;;;9.50;;
4365;SDS011;2196;47.422;9.656;2023-02-28T11:03:42;11.37;;;9.73;;
4365;SDS011;2196;47.422;9.656;2023-02-28T11:06:13;13.23;;;11.70;;
4365;SDS011;2196;47.422;9.656;2023-02-28T11:08:47;11.97;;;10.03;;
4365;SDS011;2196;47.422;9.656;2023-02-28T11:11:16;11.77;;;9.77;;
4365;SDS011;2196;47.422;9.656;2023-02-28T11:13:45;10.37;;;9.20;;
4365;SDS011;2196;47.422;9.656;2023-02-28T11:16:15;10.97;;;9.13;;
4365;SDS011;2196;47.422;9.656;2023-02-28T11:18:44;11.87;;;9.53;;
4365;SDS011;2196;47.422;9.656;2023-02-28T11:21:16;9.67;;;8.57;;
4365;SDS011;2196;47.422;9.656;2023-02-28T11:23:51;13.17;;;9.80;;
4365;SDS011;2196;47.422;9.656;2023-02-28T11:26:37;13.07;;;9.93;;
4365;SDS011;2196;47.422;9.656;2023-02-28T11:29:09;13.80;;;10.07;;
4365;SDS011;2196;47.422;9.656;2023-02-28T11:31:39;11.27;;;9.03;;
4365;SDS011;2196;47.422;9.656;2023-02-28T11:36:49;22.87;;;17.73;;
4365;SDS011;2196;47.422;9.656;2023-02-28T11:39:19;17.43;;;12.60;;
4365;SDS011;2196;47.422;9.656;2023-02-28T11:41:52;13.63;;;8.77;;
4365;SDS011;2196;47.422;9.656;2023-02-28T11:44:38;8.90;;;8.00;;
4365;SDS011;2196;47.422;9.656;2023-02-28T11:47:12;10.57;;;8.40;;
4365;SDS011;2196;47.422;9.656;2023-02-28T11:49:45;11.97;;;8.20;;
4365;SDS011;2196;47.422;9.656;2023-02-28T11:52:20;9.93;;;8.33;;
4365;SDS011;2196;47.422;9.656;2023-02-28T11:55:06;11.87;;;9.03;;
4365;SDS011;2196;47.422;9.656;2023-02-28T11:57:47;10.10;;;8.50;;
4365;SDS011;2196;47.422;9.656;2023-02-28T12:00:29;9.47;;;8.40;;
4365;SDS011;2196;47.422;9.656;2023-02-28T12:03:09;9.40;;;8.43;;
4365;SDS011;2196;47.422;9.656;2023-02-28T12:05:49;10.20;;;9.20;;
4365;SDS011;2196;47.422;9.656;2023-02-28T12:08:30;12.07;;;9.47;;
4365;SDS011;2196;47.422;9.656;2023-02-28T12:11:12;12.80;;;9.77;;
4365;SDS011;2196;47.422;9.656;2023-02-28T12:13:55;11.80;;;8.57;;
4365;SDS011;2196;47.422;9.656;2023-02-28T12:16:38;10.93;;;9.03;;
4365;SDS011;2196;47.422;9.656;2023-02-28T12:19:16;9.00;;;8.10;;
4365;SDS011;2196;47.422;9.656;2023-02-28T12:25:00;9.83;;;8.37;;
4365;SDS011;2196;47.422;9.656;2023-02-28T12:27:49;10.53;;;8.80;;
4365;SDS011;2196;47.422;9.656;2023-02-28T12:30:19;10.53;;;9.30;;
4365;SDS011;2196;47.422;9.656;2023-02-28T12:32:51;8.73;;;7.80;;
4365;SDS011;2196;47.422;9.656;2023-02-28T12:35:23;12.00;;;9.50;;
4365;SDS011;2196;47.422;9.656;2023-02-28T12:37:54;11.13;;;8.20;;
4365;SDS011;2196;47.422;9.656;2023-02-28T12:40:25;9.87;;;8.10;;
4365;SDS011;2196;47.422;9.656;2023-02-28T12:42:57;10.37;;;8.90;;
4365;SDS011;2196;47.422;9.656;2023-02-28T12:45:31;12.90;;;9.97;;
4365;SDS011;2196;47.422;9.656;2023-02-28T12:48:06;10.70;;;7.93;;
4365;SDS011;2196;47.422;9.656;2023-02-28T12:50:38;9.17;;;8.27;;
4365;SDS011;2196;47.422;9.656;2023-02-28T12:53:06;8.57;;;7.77;;
4365;SDS011;2196;47.422;9.656;2023-02-28T12:55:40;9.53;;;8.63;;
4365;SDS011;2196;47.422;9.656;2023-02-28T12:58:14;10.17;;;8.50;;
4365;SDS011;2196;47.422;9.656;2023-02-28T13:00:50;8.67;;;7.70;;
4365;SDS011;2196;47.422;9.656;2023-02-28T13:03:51;10.70;;;9.53;;
4365;SDS011;2196;47.422;9.656;2023-02-28T13:06:45;11.03;;;8.80;;
4365;SDS011;2196;47.422;9.656;2023-02-28T13:09:26;13.77;;;9.13;;
4365;SDS011;2196;47.422;9.656;2023-02-28T13:11:54;10.73;;;9.00;;
4365;SDS011;2196;47.422;9.656;2023-02-28T13:14:25;12.23;;;9.10;;
4365;SDS011;2196;47.422;9.656;2023-02-28T13:16:57;12.10;;;8.90;;
4365;SDS011;2196;47.422;9.656;2023-02-28T13:19:28;11.03;;;8.50;;
4365;SDS011;2196;47.422;9.656;2023-02-28T13:21:57;10.13;;;9.10;;
4365;SDS011;2196;47.422;9.656;2023-02-28T13:24:40;10.67;;;8.73;;
4365;SDS011;2196;47.422;9.656;2023-02-28T13:27:20;13.30;;;9.40;;
4365;SDS011;2196;47.422;9.656;2023-02-28T13:30:00;11.23;;;9.77;;
4365;SDS011;2196;47.422;9.656;2023-02-28T13:32:33;14.70;;;9.17;;
4365;SDS011;2196;47.422;9.656;2023-02-28T13:35:14;11.47;;;9.20;;
4365;SDS011;2196;47.422;9.656;2023-02-28T13:38:09;14.63;;;10.07;;
4365;SDS011;2196;47.422;9.656;2023-02-28T13:40:42;11.60;;;10.10;;
4365;SDS011;2196;47.422;9.656;2023-02-28T13:43:09;11.70;;;10.33;;
4365;SDS011;2196;47.422;9.656;2023-02-28T13:45:37;11.73;;;9.87;;
4365;SDS011;2196;47.422;9.656;2023-02-28T13:48:05;11.30;;;10.10;;
4365;SDS011;2196;47.422;9.656;2023-02-28T13:50:43;10.57;;;8.60;;
4365;SDS011;2196;47.422;9.656;2023-02-28T13:56:27;14.13;;;10.07;;
4365;SDS011;2196;47.422;9.656;2023-02-28T13:59:04;12.03;;;10.03;;
4365;SDS011;2196;47.422;9.656;2023-02-28T14:01:47;11.33;;;9.97;;
4365;SDS011;2196;47.422;9.656;2023-02-28T14:07:20;16.03;;;10.10;;
4365;SDS011;2196;47.422;9.656;2023-02-28T14:09:51;11.53;;;9.77;;
4365;SDS011;2196;47.422;9.656;2023-02-28T14:15:48;13.67;;;10.73;;
4365;SDS011;2196;47.422;9.656;2023-02-28T14:18:27;12.73;;;11.17;;
4365;SDS011;2196;47.422;9.656;2023-02-28T14:20:58;13.47;;;10.30;;
4365;SDS011;2196;47.422;9.656;2023-02-28T14:23:48;14.47;;;9.97;;
4365;SDS011;2196;47.422;9.656;2023-02-28T14:32:47;10.83;;;9.40;;
4365;SDS011;2196;47.422;9.656;2023-02-28T14:35:35;12.27;;;8.03;;
4365;SDS011;2196;47.422;9.656;2023-02-28T14:38:13;9.70;;;8.13;;
4365;SDS011;2196;47.422;9.656;2023-02-28T14:40:46;14.80;;;9.90;;
4365;SDS011;2196;47.422;9.656;2023-02-28T14:43:19;11.10;;;9.33;;
4365;SDS011;2196;47.422;9.656;2023-02-28T14:45:49;14.33;;;10.77;;
4365;SDS011;2196;47.422;9.656;2023-02-28T14:48:17;12.53;;;10.13;;
4365;SDS011;2196;47.422;9.656;2023-02-28T14:50:49;13.07;;;10.17;;
4365;SDS011;2196;47.422;9.656;2023-02-28T14:53:19;11.83;;;10.33;;
4365;SDS011;2196;47.422;9.656;2023-02-28T14:55:48;11.63;;;10.03;;
4365;SDS011;2196;47.422;9.656;2023-02-28T14:58:24;14.50;;;10.40;;
4365;SDS011;2196;47.422;9.656;2023-02-28T15:00:52;12.97;;;9.60;;
4365;SDS011;2196;47.422;9.656;2023-02-28T15:03:22;13.73;;;10.73;;
4365;SDS011;2196;47.422;9.656;2023-02-28T15:05:52;12.33;;;10.53;;
4365;SDS011;2196;47.422;9.656;2023-02-28T15:08:21;15.50;;;11.53;;
4365;SDS011;2196;47.422;9.656;2023-02-28T15:10:51;14.37;;;10.57;;
4365;SDS011;2196;47.422;9.656;2023-02-28T15:13:21;13.40;;;9.93;;
4365;SDS011;2196;47.422;9.656;2023-02-28T15:15:51;14.27;;;9.97;;
4365;SDS011;2196;47.422;9.656;2023-02-28T15:18:27;14.07;;;10.90;;
4365;SDS011;2196;47.422;9.656;2023-02-28T15:21:01;18.80;;;11.43;;
4365;SDS011;2196;47.422;9.656;2023-02-28T15:23:29;14.90;;;11.23;;
4365;SDS011;2196;47.422;9.656;2023-02-28T15:25:57;13.87;;;10.13;;
4365;SDS011;2196;47.422;9.656;2023-02-28T15:28:25;16.10;;;11.03;;
4365;SDS011;2196;47.422;9.656;2023-02-28T15:30:54;13.03;;;10.30;;
4365;SDS011;2196;47.422;9.656;2023-02-28T15:33:23;15.50;;;11.03;;
4365;SDS011;2196;47.422;9.656;2023-02-28T15:35:51;14.70;;;9.77;;
4365;SDS011;2196;47.422;9.656;2023-02-28T15:38:33;13.47;;;10.23;;
4365;SDS011;2196;47.422;9.656;2023-02-28T15:41:01;15.77;;;10.63;;
4365;SDS011;2196;47.422;9.656;2023-02-28T15:43:33;13.80;;;10.30;;
4365;SDS011;2196;47.422;9.656;2023-02-28T15:46:02;15.27;;;11.73;;
4365;SDS011;2196;47.422;9.656;2023-02-28T15:48:32;14.60;;;11.27;;
4365;SDS011;2196;47.422;9.656;2023-02-28T15:51:02;17.00;;;11.37;;
4365;SDS011;2196;47.422;9.656;2023-02-28T15:53:36;17.17;;;12.10;;
4365;SDS011;2196;47.422;9.656;2023-02-28T15:56:12;16.87;;;12.00;;
4365;SDS011;2196;47.422;9.656;2023-02-28T15:58:47;16.23;;;10.63;;
4365;SDS011;2196;47.422;9.656;2023-02-28T16:01:19;19.37;;;11.93;;
4365;SDS011;2196;47.422;9.656;2023-02-28T16:03:50;18.80;;;12.33;;
4365;SDS011;2196;47.422;9.656;2023-02-28T16:09:05;21.80;;;13.83;;
4365;SDS011;2196;47.422;9.656;2023-02-28T16:11:35;15.33;;;12.10;;